sensor_id;sensor_type;location;lat;lon;timestamp;pressure;altitude;pressure_sealevel;temperature;humidity
74675;BME280;63200;48.810;12.352;2023-06-10T00:00:48;97134.97;;;13.70;69.63
74675;BME280;63200;48.810;12.352;2023-06-10T00:03:13;97141.19;;;13.61;69.67
74675;BME280;63200;48.810;12.352;2023-06-10T00:05:39;97137.56;;;13.43;69.60
74675;BME280;63200;48.810;12.352;2023-06-10T00:08:05;97136.28;;;13.27;69.79
74675;BME280;63200;48.810;12.352;2023-06-10T00:10:37;97135.91;;;13.20;70.01
74675;BME280;63200;48.810;12.352;2023-06-10T00:13:06;97138.13;;;13.17;70.24
74675;BME280;63200;48.810;12.352;2023-06-10T00:15:34;97135.00;;;13.24;70.44
74675;BME280;63200;48.810;12.352;2023-06-10T00:18:00;97142.38;;;13.24;70.12
74675;BME280;63200;48.810;12.352;2023-06-10T00:20:26;97137.41;;;13.26;70.39
74675;BME280;63200;48.810;12.352;2023-06-10T00:22:51;97147.03;;;13.23;70.67
74675;BME280;63200;48.810;12.352;2023-06-10T00:25:17;97146.94;;;13.14;71.06
74675;BME280;63200;48.810;12.352;2023-06-10T00:27:42;97142.44;;;13.10;71.04
74675;BME280;63200;48.810;12.352;2023-06-10T00:30:08;97134.75;;;13.12;71.14
74675;BME280;63200;48.810;12.352;2023-06-10T00:32:35;97138.03;;;13.23;71.24
74675;BME280;63200;48.810;12.352;2023-06-10T00:35:01;97137.53;;;13.21;71.33
74675;BME280;63200;48.810;12.352;2023-06-10T00:37:26;97144.09;;;13.20;71.67
74675;BME280;63200;48.810;12.352;2023-06-10T00:39:52;97144.72;;;13.16;72.04
74675;BME280;63200;48.810;12.352;2023-06-10T00:42:17;97141.63;;;13.09;72.12
74675;BME280;63200;48.810;12.352;2023-06-10T00:44:42;97111.63;;;12.87;72.10
74675;BME280;63200;48.810;12.352;2023-06-10T00:47:08;97135.81;;;13.02;72.07
74675;BME280;63200;48.810;12.352;2023-06-10T00:49:34;97102.34;;;12.88;72.03
74675;BME280;63200;48.810;12.352;2023-06-10T00:52:00;97130.03;;;13.04;72.15
74675;BME280;63200;48.810;12.352;2023-06-10T00:54:26;97137.81;;;12.96;72.25
74675;BME280;63200;48.810;12.352;2023-06-10T00:56:52;97137.34;;;12.94;72.10
74675;BME280;63200;48.810;12.352;2023-06-10T00:59:18;97123.75;;;12.80;72.02
74675;BME280;63200;48.810;12.352;2023-06-10T01:01:44;97130.44;;;12.74;72.23
74675;BME280;63200;48.810;12.352;2023-06-10T01:04:12;97096.91;;;12.51;71.99
74675;BME280;63200;48.810;12.352;2023-06-10T01:09:40;97115.38;;;12.54;72.06
74675;BME280;63200;48.810;12.352;2023-06-10T01:12:19;97118.69;;;12.51;72.21
74675;BME280;63200;48.810;12.352;2023-06-10T01:14:47;97081.25;;;12.20;72.49
74675;BME280;63200;48.810;12.352;2023-06-10T01:17:14;97120.41;;;12.47;72.50
74675;BME280;63200;48.810;12.352;2023-06-10T01:19:41;97129.69;;;12.46;72.65
74675;BME280;63200;48.810;12.352;2023-06-10T01:22:09;97125.06;;;12.46;72.48
74675;BME280;63200;48.810;12.352;2023-06-10T01:24:36;97127.69;;;12.52;72.52
74675;BME280;63200;48.810;12.352;2023-06-10T01:27:05;97123.53;;;12.54;72.69
74675;BME280;63200;48.810;12.352;2023-06-10T01:29:45;97130.47;;;12.60;72.79
74675;BME280;63200;48.810;12.352;2023-06-10T01:32:15;97123.13;;;12.61;72.49
74675;BME280;63200;48.810;12.352;2023-06-10T01:34:42;97128.84;;;12.59;72.69
74675;BME280;63200;48.810;12.352;2023-06-10T01:37:15;97131.72;;;12.54;72.71
74675;BME280;63200;48.810;12.352;2023-06-10T01:39:43;97134.13;;;12.42;72.67
74675;BME280;63200;48.810;12.352;2023-06-10T01:42:09;97142.09;;;12.38;72.88
74675;BME280;63200;48.810;12.352;2023-06-10T01:44:35;97132.13;;;12.33;72.89
74675;BME280;63200;48.810;12.352;2023-06-10T01:47:01;97129.50;;;12.28;72.70
74675;BME280;63200;48.810;12.352;2023-06-10T01:49:26;97130.72;;;12.22;72.69
74675;BME280;63200;48.810;12.352;2023-06-10T01:51:53;97136.09;;;12.13;73.08
74675;BME280;63200;48.810;12.352;2023-06-10T01:54:19;97130.06;;;12.03;72.71
74675;BME280;63200;48.810;12.352;2023-06-10T01:56:44;97134.75;;;11.97;72.62
74675;BME280;63200;48.810;12.352;2023-06-10T01:59:09;97140.19;;;11.97;72.83
74675;BME280;63200;48.810;12.352;2023-06-10T02:01:34;97135.59;;;11.97;72.53
74675;BME280;63200;48.810;12.352;2023-06-10T02:04:00;97136.13;;;11.94;72.91
74675;BME280;63200;48.810;12.352;2023-06-10T02:06:25;97140.28;;;11.92;73.09
74675;BME280;63200;48.810;12.352;2023-06-10T02:08:50;97147.31;;;11.93;73.06
74675;BME280;63200;48.810;12.352;2023-06-10T02:11:16;97138.59;;;11.96;72.84
74675;BME280;63200;48.810;12.352;2023-06-10T02:13:41;97137.19;;;11.98;72.94
74675;BME280;63200;48.810;12.352;2023-06-10T02:16:06;97137.69;;;12.00;73.06
74675;BME280;63200;48.810;12.352;2023-06-10T02:18:32;97134.19;;;12.00;73.16
74675;BME280;63200;48.810;12.352;2023-06-10T02:20:58;97135.59;;;11.97;73.57
74675;BME280;63200;48.810;12.352;2023-06-10T02:23:24;97135.88;;;11.96;73.36
74675;BME280;63200;48.810;12.352;2023-06-10T02:25:49;97072.84;;;11.47;73.57
74675;BME280;63200;48.810;12.352;2023-06-10T02:28:14;97141.19;;;11.87;73.52
74675;BME280;63200;48.810;12.352;2023-06-10T02:30:41;97136.34;;;11.84;73.54
74675;BME280;63200;48.810;12.352;2023-06-10T02:33:07;97127.16;;;11.80;73.70
74675;BME280;63200;48.810;12.352;2023-06-10T02:35:35;97134.00;;;11.77;73.57
74675;BME280;63200;48.810;12.352;2023-06-10T02:38:01;97134.00;;;11.77;73.66
74675;BME280;63200;48.810;12.352;2023-06-10T02:40:26;97141.59;;;11.80;73.59
74675;BME280;63200;48.810;12.352;2023-06-10T02:42:51;97147.50;;;11.82;73.71
74675;BME280;63200;48.810;12.352;2023-06-10T02:45:17;97143.69;;;11.83;73.42
74675;BME280;63200;48.810;12.352;2023-06-10T02:47:42;97119.41;;;11.59;73.35
74675;BME280;63200;48.810;12.352;2023-06-10T02:50:08;97148.00;;;11.71;73.68
74675;BME280;63200;48.810;12.352;2023-06-10T02:52:33;97143.97;;;11.68;73.75
74675;BME280;63200;48.810;12.352;2023-06-10T02:54:58;97147.06;;;11.61;73.86
74675;BME280;63200;48.810;12.352;2023-06-10T02:57:24;97154.13;;;11.62;74.23
74675;BME280;63200;48.810;12.352;2023-06-10T02:59:49;97146.91;;;11.58;73.54
74675;BME280;63200;48.810;12.352;2023-06-10T03:02:16;97150.19;;;11.55;73.72
74675;BME280;63200;48.810;12.352;2023-06-10T03:04:41;97148.59;;;11.54;73.90
74675;BME280;63200;48.810;12.352;2023-06-10T03:07:08;97149.19;;;11.50;73.98
74675;BME280;63200;48.810;12.352;2023-06-10T03:09:36;97141.63;;;11.47;73.99
74675;BME280;63200;48.810;12.352;2023-06-10T03:12:02;97131.22;;;11.36;74.06
74675;BME280;63200;48.810;12.352;2023-06-10T03:14:27;97109.44;;;11.22;73.98
74675;BME280;63200;48.810;12.352;2023-06-10T03:16:53;97135.47;;;11.42;73.99
74675;BME280;63200;48.810;12.352;2023-06-10T03:19:18;97134.97;;;11.40;74.19
74675;BME280;63200;48.810;12.352;2023-06-10T03:21:44;97114.38;;;11.20;74.38
74675;BME280;63200;48.810;12.352;2023-06-10T03:24:10;97136.59;;;11.41;74.48
74675;BME280;63200;48.810;12.352;2023-06-10T03:26:36;97131.06;;;11.46;74.29
74675;BME280;63200;48.810;12.352;2023-06-10T03:29:01;97135.38;;;11.47;74.34
74675;BME280;63200;48.810;12.352;2023-06-10T03:31:26;97138.59;;;11.49;74.52
74675;BME280;63200;48.810;12.352;2023-06-10T03:33:52;97077.03;;;11.11;74.63
74675;BME280;63200;48.810;12.352;2023-06-10T03:36:17;97146.91;;;11.58;74.24
74675;BME280;63200;48.810;12.352;2023-06-10T03:38:42;97139.53;;;11.58;74.21
74675;BME280;63200;48.810;12.352;2023-06-10T03:41:09;97150.00;;;11.65;73.89
74675;BME280;63200;48.810;12.352;2023-06-10T03:43:35;97098.84;;;11.39;73.92
74675;BME280;63200;48.810;12.352;2023-06-10T03:46:00;97149.94;;;11.70;73.67
74675;BME280;63200;48.810;12.352;2023-06-10T03:48:25;97154.47;;;11.75;73.76
74675;BME280;63200;48.810;12.352;2023-06-10T03:50:50;97156.97;;;11.71;73.82
74675;BME280;63200;48.810;12.352;2023-06-10T03:53:17;97152.03;;;11.73;74.12
74675;BME280;63200;48.810;12.352;2023-06-10T03:55:42;97156.28;;;11.79;73.82
74675;BME280;63200;48.810;12.352;2023-06-10T03:58:07;97120.09;;;11.65;73.70
74675;BME280;63200;48.810;12.352;2023-06-10T04:00:33;97152.75;;;11.93;73.63
74675;BME280;63200;48.810;12.352;2023-06-10T04:03:06;97159.97;;;12.03;73.32
74675;BME280;63200;48.810;12.352;2023-06-10T04:05:34;97157.84;;;12.13;72.82
74675;BME280;63200;48.810;12.352;2023-06-10T04:08:00;97159.66;;;12.32;72.58
74675;BME280;63200;48.810;12.352;2023-06-10T04:10:26;97164.59;;;12.44;72.48
74675;BME280;63200;48.810;12.352;2023-06-10T04:12:52;97120.25;;;12.29;72.68
74675;BME280;63200;48.810;12.352;2023-06-10T04:15:17;97171.31;;;12.74;72.03
74675;BME280;63200;48.810;12.352;2023-06-10T04:17:43;97167.56;;;13.07;70.92
74675;BME280;63200;48.810;12.352;2023-06-10T04:20:08;97161.00;;;13.30;69.91
74675;BME280;63200;48.810;12.352;2023-06-10T04:22:35;97169.94;;;13.22;70.09
74675;BME280;63200;48.810;12.352;2023-06-10T04:25:01;97163.38;;;13.23;70.20
74675;BME280;63200;48.810;12.352;2023-06-10T04:27:27;97166.91;;;13.46;69.67
74675;BME280;63200;48.810;12.352;2023-06-10T04:29:52;97126.50;;;13.26;69.50
74675;BME280;63200;48.810;12.352;2023-06-10T04:32:17;97172.88;;;13.48;70.15
74675;BME280;63200;48.810;12.352;2023-06-10T04:34:43;97166.13;;;13.46;70.56
74675;BME280;63200;48.810;12.352;2023-06-10T04:37:08;97169.19;;;13.53;70.49
74675;BME280;63200;48.810;12.352;2023-06-10T04:39:33;97141.06;;;13.44;70.83
74675;BME280;63200;48.810;12.352;2023-06-10T04:41:59;97176.22;;;13.68;70.67
74675;BME280;63200;48.810;12.352;2023-06-10T04:44:25;97169.34;;;13.79;70.43
74675;BME280;63200;48.810;12.352;2023-06-10T04:46:51;97173.25;;;13.87;70.37
74675;BME280;63200;48.810;12.352;2023-06-10T04:49:16;97179.56;;;13.96;70.45
74675;BME280;63200;48.810;12.352;2023-06-10T04:51:41;97138.41;;;13.84;70.20
74675;BME280;63200;48.810;12.352;2023-06-10T04:54:07;97181.09;;;14.20;69.94
74675;BME280;63200;48.810;12.352;2023-06-10T04:56:32;97181.94;;;14.29;70.11
74675;BME280;63200;48.810;12.352;2023-06-10T04:58:58;97147.06;;;14.18;70.47
74675;BME280;63200;48.810;12.352;2023-06-10T05:01:24;97161.75;;;14.48;70.71
74675;BME280;63200;48.810;12.352;2023-06-10T05:03:49;97175.78;;;14.64;70.60
74675;BME280;63200;48.810;12.352;2023-06-10T05:06:15;97170.34;;;14.81;70.52
74675;BME280;63200;48.810;12.352;2023-06-10T05:08:40;97171.97;;;15.00;70.47
74675;BME280;63200;48.810;12.352;2023-06-10T05:11:06;97173.09;;;15.25;70.19
74675;BME280;63200;48.810;12.352;2023-06-10T05:13:31;97131.13;;;15.30;69.47
74675;BME280;63200;48.810;12.352;2023-06-10T05:15:57;97171.75;;;15.75;69.48
74675;BME280;63200;48.810;12.352;2023-06-10T05:18:23;97171.03;;;16.05;69.10
74675;BME280;63200;48.810;12.352;2023-06-10T05:20:48;97171.31;;;16.21;68.82
74675;BME280;63200;48.810;12.352;2023-06-10T05:23:14;97129.13;;;16.13;68.63
74675;BME280;63200;48.810;12.352;2023-06-10T05:25:39;97178.69;;;16.59;68.65
74675;BME280;63200;48.810;12.352;2023-06-10T05:28:05;97174.84;;;16.81;68.15
74675;BME280;63200;48.810;12.352;2023-06-10T05:30:34;97165.25;;;16.96;68.11
74675;BME280;63200;48.810;12.352;2023-06-10T05:33:00;97169.00;;;17.12;67.81
74675;BME280;63200;48.810;12.352;2023-06-10T05:35:25;97179.69;;;17.26;67.58
74675;BME280;63200;48.810;12.352;2023-06-10T05:37:50;97174.28;;;17.39;67.25
74675;BME280;63200;48.810;12.352;2023-06-10T05:40:15;97178.31;;;17.54;67.04
74675;BME280;63200;48.810;12.352;2023-06-10T05:42:41;97170.94;;;17.67;66.63
74675;BME280;63200;48.810;12.352;2023-06-10T05:45:06;97186.28;;;17.80;66.20
74675;BME280;63200;48.810;12.352;2023-06-10T05:47:32;97185.06;;;17.90;65.90
74675;BME280;63200;48.810;12.352;2023-06-10T05:49:57;97185.91;;;18.03;65.56
74675;BME280;63200;48.810;12.352;2023-06-10T05:52:22;97185.81;;;18.11;65.53
74675;BME280;63200;48.810;12.352;2023-06-10T05:54:49;97188.69;;;18.27;65.12
74675;BME280;63200;48.810;12.352;2023-06-10T05:57:15;97183.69;;;18.42;64.82
74675;BME280;63200;48.810;12.352;2023-06-10T05:59:40;97176.22;;;18.55;64.44
74675;BME280;63200;48.810;12.352;2023-06-10T06:02:05;97141.97;;;18.40;64.13
74675;BME280;63200;48.810;12.352;2023-06-10T06:04:31;97159.25;;;18.65;63.71
74675;BME280;63200;48.810;12.352;2023-06-10T06:06:57;97143.09;;;18.63;63.43
74675;BME280;63200;48.810;12.352;2023-06-10T06:09:22;97170.81;;;18.95;63.79
74675;BME280;63200;48.810;12.352;2023-06-10T06:11:48;97178.59;;;19.06;63.20
74675;BME280;63200;48.810;12.352;2023-06-10T06:14:13;97184.78;;;19.03;63.08
74675;BME280;63200;48.810;12.352;2023-06-10T06:16:38;97182.78;;;19.15;63.08
74675;BME280;63200;48.810;12.352;2023-06-10T06:19:03;97177.94;;;19.37;62.63
74675;BME280;63200;48.810;12.352;2023-06-10T06:21:29;97174.94;;;19.30;61.76
74675;BME280;63200;48.810;12.352;2023-06-10T06:23:54;97179.91;;;19.53;61.01
74675;BME280;63200;48.810;12.352;2023-06-10T06:26:20;97134.50;;;19.30;60.07
74675;BME280;63200;48.810;12.352;2023-06-10T06:28:45;97178.81;;;19.70;60.20
74675;BME280;63200;48.810;12.352;2023-06-10T06:31:11;97182.19;;;19.79;60.37
74675;BME280;63200;48.810;12.352;2023-06-10T06:33:36;97170.97;;;20.00;59.09
74675;BME280;63200;48.810;12.352;2023-06-10T06:36:01;97181.34;;;19.91;58.56
74675;BME280;63200;48.810;12.352;2023-06-10T06:38:27;97177.44;;;19.92;58.98
74675;BME280;63200;48.810;12.352;2023-06-10T06:40:52;97178.56;;;20.19;58.59
74675;BME280;63200;48.810;12.352;2023-06-10T06:43:18;97174.06;;;20.46;57.20
74675;BME280;63200;48.810;12.352;2023-06-10T06:45:44;97181.81;;;20.73;56.42
74675;BME280;63200;48.810;12.352;2023-06-10T06:48:10;97183.38;;;20.90;56.91
74675;BME280;63200;48.810;12.352;2023-06-10T06:50:36;97153.78;;;21.06;57.06
74675;BME280;63200;48.810;12.352;2023-06-10T06:53:01;97188.72;;;21.38;54.43
74675;BME280;63200;48.810;12.352;2023-06-10T06:55:26;97180.16;;;21.23;54.24
74675;BME280;63200;48.810;12.352;2023-06-10T06:57:52;97184.16;;;21.45;54.84
74675;BME280;63200;48.810;12.352;2023-06-10T07:00:18;97190.28;;;21.74;54.34
74675;BME280;63200;48.810;12.352;2023-06-10T07:02:43;97196.00;;;21.85;54.72
74675;BME280;63200;48.810;12.352;2023-06-10T07:05:08;97203.66;;;22.15;53.69
74675;BME280;63200;48.810;12.352;2023-06-10T07:07:34;97200.22;;;22.22;52.51
74675;BME280;63200;48.810;12.352;2023-06-10T07:09:59;97207.38;;;22.23;51.63
74675;BME280;63200;48.810;12.352;2023-06-10T07:12:25;97200.34;;;22.29;51.03
74675;BME280;63200;48.810;12.352;2023-06-10T07:14:50;97202.09;;;22.37;51.25
74675;BME280;63200;48.810;12.352;2023-06-10T07:17:16;97204.78;;;22.34;50.83
74675;BME280;63200;48.810;12.352;2023-06-10T07:19:43;97196.78;;;22.52;49.80
74675;BME280;63200;48.810;12.352;2023-06-10T07:22:08;97208.84;;;22.90;50.24
74675;BME280;63200;48.810;12.352;2023-06-10T07:24:34;97219.72;;;23.02;49.43
74675;BME280;63200;48.810;12.352;2023-06-10T07:26:59;97199.84;;;23.23;49.45
74675;BME280;63200;48.810;12.352;2023-06-10T07:29:24;97202.31;;;23.28;48.98
74675;BME280;63200;48.810;12.352;2023-06-10T07:31:49;97208.34;;;23.11;49.37
74675;BME280;63200;48.810;12.352;2023-06-10T07:34:15;97206.13;;;22.93;49.51
74675;BME280;63200;48.810;12.352;2023-06-10T07:36:40;97212.94;;;22.73;50.20
74675;BME280;63200;48.810;12.352;2023-06-10T07:39:05;97211.53;;;22.59;49.99
74675;BME280;63200;48.810;12.352;2023-06-10T07:41:32;97214.75;;;22.38;50.08
74675;BME280;63200;48.810;12.352;2023-06-10T07:43:57;97211.00;;;22.50;50.62
74675;BME280;63200;48.810;12.352;2023-06-10T07:46:23;97214.22;;;22.79;50.84
74675;BME280;63200;48.810;12.352;2023-06-10T07:48:49;97219.50;;;22.88;49.87
74675;BME280;63200;48.810;12.352;2023-06-10T07:51:16;97216.75;;;22.91;49.21
74675;BME280;63200;48.810;12.352;2023-06-10T07:53:41;97183.22;;;22.96;48.17
74675;BME280;63200;48.810;12.352;2023-06-10T07:56:07;97212.69;;;23.39;48.34
74675;BME280;63200;48.810;12.352;2023-06-10T07:58:32;97214.75;;;23.45;47.68
74675;BME280;63200;48.810;12.352;2023-06-10T08:00:58;97209.75;;;23.24;48.33
74675;BME280;63200;48.810;12.352;2023-06-10T08:03:23;97209.94;;;23.12;47.88
74675;BME280;63200;48.810;12.352;2023-06-10T08:05:48;97219.56;;;23.49;48.42
74675;BME280;63200;48.810;12.352;2023-06-10T08:08:14;97225.81;;;23.72;45.90
74675;BME280;63200;48.810;12.352;2023-06-10T08:10:39;97222.38;;;23.52;46.94
74675;BME280;63200;48.810;12.352;2023-06-10T08:13:04;97213.84;;;23.07;47.39
74675;BME280;63200;48.810;12.352;2023-06-10T08:15:30;97218.47;;;22.73;48.47
74675;BME280;63200;48.810;12.352;2023-06-10T08:17:55;97197.38;;;22.18;48.89
74675;BME280;63200;48.810;12.352;2023-06-10T08:20:21;97222.22;;;22.84;48.91
74675;BME280;63200;48.810;12.352;2023-06-10T08:22:47;97228.59;;;23.76;47.17
74675;BME280;63200;48.810;12.352;2023-06-10T08:25:12;97222.44;;;24.72;44.46
74675;BME280;63200;48.810;12.352;2023-06-10T08:27:37;97228.44;;;25.37;42.24
74675;BME280;63200;48.810;12.352;2023-06-10T08:30:03;97234.28;;;25.21;42.96
74675;BME280;63200;48.810;12.352;2023-06-10T08:32:29;97227.81;;;24.99;43.96
74675;BME280;63200;48.810;12.352;2023-06-10T08:34:55;97233.06;;;24.22;44.81
74675;BME280;63200;48.810;12.352;2023-06-10T08:37:20;97237.88;;;23.57;45.35
74675;BME280;63200;48.810;12.352;2023-06-10T08:39:45;97241.72;;;23.49;47.27
74675;BME280;63200;48.810;12.352;2023-06-10T08:44:39;97235.09;;;24.25;45.78
74675;BME280;63200;48.810;12.352;2023-06-10T08:47:15;97229.41;;;24.55;46.30
74675;BME280;63200;48.810;12.352;2023-06-10T08:49:45;97230.56;;;25.66;44.63
74675;BME280;63200;48.810;12.352;2023-06-10T08:52:14;97236.09;;;25.55;44.96
74675;BME280;63200;48.810;12.352;2023-06-10T08:54:43;97231.03;;;25.12;44.15
74675;BME280;63200;48.810;12.352;2023-06-10T08:57:08;97240.94;;;24.57;46.08
74675;BME280;63200;48.810;12.352;2023-06-10T08:59:34;97230.56;;;24.51;44.79
74675;BME280;63200;48.810;12.352;2023-06-10T09:02:00;97230.34;;;24.67;44.77
74675;BME280;63200;48.810;12.352;2023-06-10T09:04:27;97223.41;;;24.94;44.34
74675;BME280;63200;48.810;12.352;2023-06-10T09:06:53;97229.44;;;24.59;45.40
74675;BME280;63200;48.810;12.352;2023-06-10T09:09:20;97230.16;;;24.49;44.75
74675;BME280;63200;48.810;12.352;2023-06-10T09:11:46;97232.63;;;24.57;46.73
74675;BME280;63200;48.810;12.352;2023-06-10T09:14:12;97227.47;;;25.89;43.91
74675;BME280;63200;48.810;12.352;2023-06-10T09:16:38;97230.44;;;26.79;40.45
74675;BME280;63200;48.810;12.352;2023-06-10T09:19:04;97229.56;;;27.15;40.13
74675;BME280;63200;48.810;12.352;2023-06-10T09:21:33;97232.69;;;27.49;39.81
74675;BME280;63200;48.810;12.352;2023-06-10T09:23:59;97229.94;;;28.27;38.97
74675;BME280;63200;48.810;12.352;2023-06-10T09:26:28;97230.31;;;27.51;37.18
74675;BME280;63200;48.810;12.352;2023-06-10T09:28:58;97239.84;;;27.50;37.46
74675;BME280;63200;48.810;12.352;2023-06-10T09:31:27;97230.34;;;26.28;40.07
74675;BME280;63200;48.810;12.352;2023-06-10T09:33:53;97225.19;;;26.38;40.53
74675;BME280;63200;48.810;12.352;2023-06-10T09:36:24;97229.19;;;26.40;40.22
74675;BME280;63200;48.810;12.352;2023-06-10T09:38:50;97220.84;;;26.44;41.37
74675;BME280;63200;48.810;12.352;2023-06-10T09:41:16;97228.66;;;25.84;41.40
74675;BME280;63200;48.810;12.352;2023-06-10T09:43:45;97212.75;;;25.77;43.16
74675;BME280;63200;48.810;12.352;2023-06-10T09:46:18;97225.66;;;26.98;40.62
74675;BME280;63200;48.810;12.352;2023-06-10T09:48:45;97239.81;;;27.72;37.74
74675;BME280;63200;48.810;12.352;2023-06-10T09:51:12;97204.31;;;27.72;37.73
74675;BME280;63200;48.810;12.352;2023-06-10T09:53:38;97228.34;;;28.30;36.93
74675;BME280;63200;48.810;12.352;2023-06-10T09:56:04;97231.69;;;28.06;37.54
74675;BME280;63200;48.810;12.352;2023-06-10T09:58:37;97234.75;;;27.16;37.83
74675;BME280;63200;48.810;12.352;2023-06-10T10:01:07;97229.84;;;27.74;38.50
74675;BME280;63200;48.810;12.352;2023-06-10T10:03:33;97228.38;;;28.79;36.98
74675;BME280;63200;48.810;12.352;2023-06-10T10:05:59;97226.94;;;29.81;36.07
74675;BME280;63200;48.810;12.352;2023-06-10T10:08:25;97220.22;;;29.75;34.03
74675;BME280;63200;48.810;12.352;2023-06-10T10:10:51;97225.78;;;29.44;34.81
74675;BME280;63200;48.810;12.352;2023-06-10T10:13:17;97224.47;;;28.13;35.16
74675;BME280;63200;48.810;12.352;2023-06-10T10:15:43;97214.69;;;28.46;35.78
74675;BME280;63200;48.810;12.352;2023-06-10T10:18:10;97210.81;;;29.20;34.52
74675;BME280;63200;48.810;12.352;2023-06-10T10:21:00;97213.16;;;29.29;33.53
74675;BME280;63200;48.810;12.352;2023-06-10T10:23:35;97215.69;;;29.54;33.15
74675;BME280;63200;48.810;12.352;2023-06-10T10:26:07;97218.59;;;29.78;32.38
74675;BME280;63200;48.810;12.352;2023-06-10T10:28:40;97224.81;;;29.20;33.05
74675;BME280;63200;48.810;12.352;2023-06-10T10:31:08;97219.78;;;28.55;35.64
74675;BME280;63200;48.810;12.352;2023-06-10T10:33:54;97218.16;;;28.05;36.28
74675;BME280;63200;48.810;12.352;2023-06-10T10:36:21;97221.06;;;27.69;37.11
74675;BME280;63200;48.810;12.352;2023-06-10T10:38:47;97218.78;;;27.31;37.32
74675;BME280;63200;48.810;12.352;2023-06-10T10:41:15;97196.59;;;26.52;38.49
74675;BME280;63200;48.810;12.352;2023-06-10T10:43:41;97215.69;;;26.46;38.36
74675;BME280;63200;48.810;12.352;2023-06-10T10:46:13;97216.81;;;27.24;38.60
74675;BME280;63200;48.810;12.352;2023-06-10T10:48:39;97220.16;;;27.90;34.82
74675;BME280;63200;48.810;12.352;2023-06-10T10:51:07;97193.53;;;28.45;34.29
74675;BME280;63200;48.810;12.352;2023-06-10T10:53:32;97217.16;;;29.28;34.06
74675;BME280;63200;48.810;12.352;2023-06-10T10:55:59;97209.88;;;28.47;36.18
74675;BME280;63200;48.810;12.352;2023-06-10T10:58:25;97215.00;;;27.92;35.20
74675;BME280;63200;48.810;12.352;2023-06-10T11:00:51;97214.28;;;27.77;35.66
74675;BME280;63200;48.810;12.352;2023-06-10T11:03:17;97205.28;;;27.22;37.02
74675;BME280;63200;48.810;12.352;2023-06-10T11:05:47;97205.66;;;27.32;37.57
74675;BME280;63200;48.810;12.352;2023-06-10T11:11:18;97202.22;;;27.95;34.92
74675;BME280;63200;48.810;12.352;2023-06-10T11:13:58;97207.09;;;28.43;35.88
74675;BME280;63200;48.810;12.352;2023-06-10T11:16:26;97183.97;;;28.42;34.31
74675;BME280;63200;48.810;12.352;2023-06-10T11:18:56;97210.53;;;29.49;32.55
74675;BME280;63200;48.810;12.352;2023-06-10T11:21:23;97199.13;;;29.67;32.79
74675;BME280;63200;48.810;12.352;2023-06-10T11:23:50;97184.09;;;28.81;34.29
74675;BME280;63200;48.810;12.352;2023-06-10T11:34:01;97200.50;;;27.37;36.21
74675;BME280;63200;48.810;12.352;2023-06-10T11:36:28;97201.22;;;27.52;36.34
74675;BME280;63200;48.810;12.352;2023-06-10T11:39:04;97203.84;;;27.85;38.00
74675;BME280;63200;48.810;12.352;2023-06-10T11:41:31;97176.97;;;28.20;36.35
74675;BME280;63200;48.810;12.352;2023-06-10T11:44:02;97195.94;;;28.92;36.81
74675;BME280;63200;48.810;12.352;2023-06-10T11:46:27;97194.16;;;29.13;34.45
74675;BME280;63200;48.810;12.352;2023-06-10T11:48:54;97183.41;;;29.07;35.98
74675;BME280;63200;48.810;12.352;2023-06-10T11:51:20;97187.81;;;29.78;35.02
74675;BME280;63200;48.810;12.352;2023-06-10T11:53:49;97188.91;;;30.15;33.13
74675;BME280;63200;48.810;12.352;2023-06-10T11:56:21;97185.00;;;30.08;32.39
74675;BME280;63200;48.810;12.352;2023-06-10T11:58:56;97188.69;;;28.53;34.43
74675;BME280;63200;48.810;12.352;2023-06-10T12:01:24;97191.03;;;28.05;34.62
74675;BME280;63200;48.810;12.352;2023-06-10T12:03:57;97194.09;;;27.37;37.19
74675;BME280;63200;48.810;12.352;2023-06-10T12:06:23;97191.41;;;26.97;38.73
74675;BME280;63200;48.810;12.352;2023-06-10T12:08:48;97191.56;;;27.71;36.48
74675;BME280;63200;48.810;12.352;2023-06-10T12:11:14;97179.25;;;28.36;36.53
74675;BME280;63200;48.810;12.352;2023-06-10T12:13:46;97183.09;;;29.40;34.02
74675;BME280;63200;48.810;12.352;2023-06-10T12:16:15;97180.78;;;30.24;33.00
74675;BME280;63200;48.810;12.352;2023-06-10T12:18:43;97180.84;;;30.48;33.00
74675;BME280;63200;48.810;12.352;2023-06-10T12:21:19;97180.38;;;30.97;32.34
74675;BME280;63200;48.810;12.352;2023-06-10T12:26:48;97176.69;;;31.23;31.80
74675;BME280;63200;48.810;12.352;2023-06-10T12:29:22;97181.16;;;31.21;30.84
74675;BME280;63200;48.810;12.352;2023-06-10T12:32:00;97175.84;;;31.47;30.47
74675;BME280;63200;48.810;12.352;2023-06-10T12:34:36;97179.00;;;31.49;30.88
74675;BME280;63200;48.810;12.352;2023-06-10T12:37:02;97182.34;;;32.00;31.04
74675;BME280;63200;48.810;12.352;2023-06-10T12:39:29;97169.53;;;32.52;29.45
74675;BME280;63200;48.810;12.352;2023-06-10T12:41:55;97170.16;;;33.06;28.64
74675;BME280;63200;48.810;12.352;2023-06-10T12:44:30;97168.69;;;33.73;27.49
74675;BME280;63200;48.810;12.352;2023-06-10T12:46:56;97170.84;;;33.10;27.10
74675;BME280;63200;48.810;12.352;2023-06-10T12:49:22;97167.06;;;31.85;29.32
74675;BME280;63200;48.810;12.352;2023-06-10T12:51:47;97169.31;;;30.42;30.36
74675;BME280;63200;48.810;12.352;2023-06-10T12:54:13;97160.31;;;30.03;31.19
74675;BME280;63200;48.810;12.352;2023-06-10T12:56:38;97169.53;;;30.00;31.71
74675;BME280;63200;48.810;12.352;2023-06-10T12:59:04;97168.13;;;29.54;31.69
74675;BME280;63200;48.810;12.352;2023-06-10T13:01:29;97160.78;;;28.95;31.96
74675;BME280;63200;48.810;12.352;2023-06-10T13:03:56;97169.47;;;28.62;34.18
74675;BME280;63200;48.810;12.352;2023-06-10T13:06:22;97171.75;;;28.25;35.12